Time;durP1;ratioP1;P1;durP2;ratioP2;P2;SDS_P1;SDS_P2;PMS_P1;PMS_P2;Temp;Humidity;BMP_temperature;BMP_pressure;BME280_temperature;BME280_humidity;BME280_pressure;Samples;Min_cycle;Max_cycle;Signal;HPM_P1;HPM_P2
2023/12/04 08:32:49;;;;;;;14.55;6.93;;;;;;;1.33;100.00;100728.56;5402936;23;20088;-72
2023/12/04 08:35:15;;;;;;;9.43;5.25;;;;;;;1.31;100.00;100719.84;4885506;29;20036;-73
2023/12/04 08:37:40;;;;;;;10.32;7.10;;;;;;;1.17;100.00;100719.94;4905489;29;20067;-72
2023/12/04 08:40:08;;;;;;;10.77;6.07;;;;;;;1.15;100.00;100711.16;4901500;29;20059;-74
2023/12/04 08:42:33;;;;;;;10.55;5.45;;;;;;;1.28;100.00;100724.03;4887335;29;20482;-74
2023/12/04 08:44:59;;;;;;;11.90;6.10;;;;;;;1.20;100.00;100713.78;4892503;29;20035;-74
2023/12/04 08:47:24;;;;;;;12.18;7.22;;;;;;;1.32;100.00;100713.97;4903744;29;20063;-72
2023/12/04 08:49:50;;;;;;;9.68;5.65;;;;;;;1.38;100.00;100709.94;4888245;29;20386;-73
2023/12/04 08:52:16;;;;;;;11.10;5.68;;;;;;;1.38;100.00;100709.94;4906188;29;20393;-72
2023/12/04 08:54:41;;;;;;;11.30;5.32;;;;;;;1.29;100.00;100714.63;4889304;29;20152;-72
2023/12/04 08:57:07;;;;;;;12.38;6.72;;;;;;;1.31;100.00;100720.66;4904433;29;20032;-72
2023/12/04 08:59:33;;;;;;;12.05;6.10;;;;;;;1.42;100.00;100716.44;4892861;29;20029;-74
2023/12/04 09:01:58;;;;;;;13.77;7.18;;;;;;;1.35;100.00;100721.63;4907534;29;20568;-74
2023/12/04 09:04:24;;;;;;;9.30;4.93;;;;;;;1.47;100.00;100714.69;4907185;29;20031;-73
2023/12/04 09:06:49;;;;;;;8.88;5.60;;;;;;;1.50;100.00;100728.66;4888981;29;20409;-73
2023/12/04 09:09:16;;;;;;;11.65;5.45;;;;;;;1.42;100.00;100716.44;4907378;29;20075;-73
2023/12/04 09:11:42;;;;;;;9.48;5.38;;;;;;;1.46;100.00;100715.81;4892950;29;20031;-72
2023/12/04 09:14:08;;;;;;;7.53;5.47;;;;;;;1.44;100.00;100712.56;4903941;29;20482;-74
2023/12/04 09:16:34;;;;;;;9.68;4.90;;;;;;;1.46;100.00;100715.81;4912325;29;20036;-73
2023/12/04 09:18:59;;;;;;;10.80;5.40;;;;;;;1.46;100.00;100716.63;4889528;29;20032;-73
2023/12/04 09:21:24;;;;;;;12.25;6.45;;;;;;;1.53;100.00;100721.69;4888565;29;20502;-74
2023/12/04 09:23:50;;;;;;;7.88;4.90;;;;;;;1.59;100.00;100720.41;4910589;29;20657;-73
2023/12/04 09:26:17;;;;;;;9.70;5.65;;;;;;;1.49;100.00;100717.94;4910151;29;20585;-74
2023/12/04 09:28:42;;;;;;;10.93;5.57;;;;;;;1.57;100.00;100723.47;4909193;29;20111;-72
2023/12/04 09:31:08;;;;;;;10.15;5.57;;;;;;;1.48;100.00;100714.38;4910603;29;20122;-73
2023/12/04 09:33:34;;;;;;;9.75;5.53;;;;;;;1.65;100.00;100715.56;4888270;29;20410;-72
2023/12/04 09:35:59;;;;;;;11.48;5.63;;;;;;;1.55;100.00;100711.13;4890220;29;20039;-72
2023/12/04 09:38:24;;;;;;;7.68;5.07;;;;;;;1.59;100.00;100717.63;4891225;29;20034;-74
2023/12/04 09:40:52;;;;;;;9.07;6.32;;;;;;;1.56;100.00;100709.97;4889557;29;20028;-72
2023/12/04 09:43:18;;;;;;;12.00;5.47;;;;;;;1.64;100.00;100706.44;4891246;29;20045;-76
2023/12/04 09:45:43;;;;;;;9.95;5.15;;;;;;;1.59;100.00;100710.16;4892115;29;20329;-73
2023/12/04 09:48:09;;;;;;;10.95;6.43;;;;;;;1.48;100.00;100705.28;4888039;29;20420;-76
2023/12/04 09:50:35;;;;;;;13.30;5.45;;;;;;;1.66;100.00;100703.38;4889347;29;21083;-76
2023/12/04 09:53:02;;;;;;;9.30;5.25;;;;;;;1.59;100.00;100695.56;4875129;29;20553;-75
2023/12/04 09:55:27;;;;;;;8.57;5.53;;;;;;;1.62;100.00;100704.03;4890662;29;20040;-76
2023/12/04 09:57:54;;;;;;;8.18;5.07;;;;;;;1.65;100.00;100690.72;4892171;29;20067;-75
2023/12/04 10:00:21;;;;;;;11.52;5.78;;;;;;;1.65;100.00;100690.72;4891931;29;20047;-75
2023/12/04 10:02:47;;;;;;;6.57;4.78;;;;;;;1.57;100.00;100689.56;4893280;29;20064;-75
2023/12/04 10:05:13;;;;;;;10.90;5.63;;;;;;;1.70;100.00;100691.34;4888968;29;20059;-75
2023/12/04 10:07:38;;;;;;;9.38;5.75;;;;;;;1.69;100.00;100694.47;4892414;29;20047;-75
2023/12/04 10:10:08;;;;;;;9.23;5.30;;;;;;;1.73;100.00;100699.00;4871975;29;20040;-75
2023/12/04 10:12:35;;;;;;;12.07;5.97;;;;;;;1.75;100.00;100696.72;4890954;29;20490;-74
2023/12/04 10:15:05;;;;;;;11.30;6.72;;;;;;;1.72;100.00;100696.56;4891848;29;20541;-75
2023/12/04 10:17:37;;;;;;;10.48;5.18;;;;;;;1.73;100.00;100682.44;4891354;29;20115;-74
2023/12/04 10:20:17;;;;;;;11.45;6.10;;;;;;;1.73;100.00;100681.63;4875946;29;20068;-75
2023/12/04 10:23:01;;;;;;;11.57;6.68;;;;;;;1.81;100.00;100676.13;4890344;29;20543;-74
2023/12/04 10:25:29;;;;;;;9.60;6.68;;;;;;;1.80;100.00;100652.41;4870105;29;20036;-74
2023/12/04 10:28:07;;;;;;;10.48;5.85;;;;;;;1.76;100.00;100670.75;4891837;29;20028;-74
2023/12/04 10:30:33;;;;;;;9.60;5.25;;;;;;;1.82;100.00;100658.41;4890374;29;20033;-75
2023/12/04 10:33:02;;;;;;;13.77;6.78;;;;;;;1.79;100.00;100653.56;4885868;29;20407;-74
2023/12/04 10:35:33;;;;;;;10.13;5.97;;;;;;;1.86;100.00;100652.25;4889895;29;20048;-75
2023/12/04 10:37:59;;;;;;;11.32;5.72;;;;;;;1.73;100.00;100642.97;4875247;29;20375;-76
2023/12/04 10:40:29;;;;;;;10.60;6.50;;;;;;;1.77;100.00;100642.03;4891680;29;20064;-74
2023/12/04 10:43:11;;;;;;;10.63;6.75;;;;;;;1.86;100.00;100638.47;4886777;29;20510;-74
2023/12/04 10:45:40;;;;;;;12.88;6.88;;;;;;;1.76;100.00;100634.88;4875362;29;20124;-74
2023/12/04 10:48:06;;;;;;;12.25;6.40;;;;;;;1.87;100.00;100640.06;4888465;29;20092;-74
2023/12/04 10:50:37;;;;;;;14.07;7.53;;;;;;;1.77;100.00;100633.75;4888564;29;20989;-74
2023/12/04 10:53:04;;;;;;;14.60;7.38;;;;;;;1.85;100.00;100634.06;4892109;29;20060;-77
2023/12/04 10:55:32;;;;;;;11.82;7.07;;;;;;;1.87;100.00;100629.84;4890343;29;20051;-77
2023/12/04 10:58:01;;;;;;;10.68;6.32;;;;;;;1.96;100.00;100624.31;4888049;29;20040;-77
2023/12/04 11:00:28;;;;;;;13.15;6.80;;;;;;;1.83;100.00;100615.91;4886660;29;20028;-77
2023/12/04 11:02:55;;;;;;;14.32;7.28;;;;;;;1.90;100.00;100614.56;4890943;29;20028;-77
2023/12/04 11:05:24;;;;;;;13.50;6.80;;;;;;;1.99;100.00;100612.63;4876285;29;20063;-77
2023/12/04 11:07:56;;;;;;;11.20;6.03;;;;;;;1.83;100.00;100609.53;4888378;29;20033;-77
2023/12/04 11:10:25;;;;;;;14.68;6.35;;;;;;;1.92;100.00;100609.53;4890271;29;20493;-76
2023/12/04 11:12:58;;;;;;;15.50;6.53;;;;;;;1.89;100.00;100601.91;4890134;29;20036;-76
2023/12/04 11:15:25;;;;;;;10.43;5.55;;;;;;;1.92;100.00;100601.25;4876941;29;20379;-76
2023/12/04 11:17:58;;;;;;;11.73;6.05;;;;;;;1.90;100.00;100600.78;4890786;29;20088;-76
2023/12/04 11:20:27;;;;;;;9.10;6.05;;;;;;;2.04;100.00;100598.66;4889137;29;20551;-76
2023/12/04 11:22:55;;;;;;;13.15;6.32;;;;;;;2.09;100.00;100600.41;4888825;29;20031;-76
2023/12/04 11:25:23;;;;;;;10.00;5.68;;;;;;;1.99;100.00;100591.34;4871910;29;20138;-76
2023/12/04 11:27:51;;;;;;;11.20;6.72;;;;;;;2.12;100.00;100589.53;4889512;29;20036;-76
2023/12/04 11:30:17;;;;;;;8.32;5.82;;;;;;;1.96;100.00;100591.19;4888161;29;20554;-78
2023/12/04 11:32:48;;;;;;;9.77;5.75;;;;;;;2.08;100.00;100588.56;4889869;29;20053;-77
2023/12/04 11:35:17;;;;;;;11.38;6.10;;;;;;;1.90;100.00;100593.31;4888271;29;20415;-77
2023/12/04 11:37:47;;;;;;;10.95;7.57;;;;;;;2.01;100.00;100599.31;4889804;29;20442;-76
2023/12/04 11:40:15;;;;;;;11.35;6.55;;;;;;;1.94;100.00;100587.94;4887335;29;20036;-77
2023/12/04 11:42:41;;;;;;;10.38;6.53;;;;;;;2.04;100.00;100590.38;4871462;29;20047;-77
2023/12/04 11:45:07;;;;;;;9.90;5.90;;;;;;;2.06;100.00;100587.28;4886690;29;20112;-77
2023/12/04 11:47:59;;;;;;;11.30;6.70;;;;;;;2.07;100.00;100581.44;4869566;29;20166;-77
2023/12/04 11:50:25;;;;;;;10.55;6.03;;;;;;;1.95;100.00;100579.34;4891342;29;20033;-77
2023/12/04 11:52:51;;;;;;;9.55;5.32;;;;;;;2.17;100.00;100570.06;4889577;29;20055;-77
2023/12/04 11:55:26;;;;;;;17.38;7.93;;;;;;;2.10;100.00;100568.94;4884947;29;20032;-77
2023/12/04 11:57:54;;;;;;;13.68;7.65;;;;;;;2.17;100.00;100564.53;4887408;29;20501;-77
2023/12/04 12:00:22;;;;;;;10.82;6.10;;;;;;;2.14;100.00;100565.16;4890416;29;20123;-77
2023/12/04 12:02:54;;;;;;;12.13;5.70;;;;;;;2.15;100.00;100560.44;4890342;29;20165;-77
2023/12/04 12:05:21;;;;;;;9.63;5.82;;;;;;;2.18;100.00;100560.63;4886081;29;20499;-76
2023/12/04 12:07:46;;;;;;;13.10;6.70;;;;;;;2.20;100.00;100560.28;4870033;29;20499;-77
2023/12/04 12:10:13;;;;;;;10.48;5.20;;;;;;;2.17;100.00;100559.00;4889422;29;20063;-77
2023/12/04 12:12:42;;;;;;;10.00;6.57;;;;;;;2.16;100.00;100549.09;4873021;29;20447;-77
2023/12/04 12:15:09;;;;;;;10.27;6.00;;;;;;;2.17;100.00;100541.59;4892161;29;20040;-77
2023/12/04 12:17:35;;;;;;;10.80;5.93;;;;;;;2.15;100.00;100539.19;4873017;29;20041;-76
2023/12/04 12:20:00;;;;;;;9.30;6.20;;;;;;;2.17;100.00;100544.38;4871505;29;20040;-76
2023/12/04 12:22:25;;;;;;;10.48;6.80;;;;;;;2.27;100.00;100534.94;4884476;29;20028;-76
2023/12/04 12:24:51;;;;;;;14.27;7.32;;;;;;;2.27;100.00;100534.94;4888070;29;20115;-76
2023/12/04 12:27:17;;;;;;;9.02;5.53;;;;;;;2.16;100.00;100518.72;4890338;29;20474;-76
2023/12/04 12:29:43;;;;;;;7.72;5.55;;;;;;;2.23;100.00;100530.06;4870947;29;20038;-76
2023/12/04 12:32:08;;;;;;;12.15;7.70;;;;;;;2.16;100.00;100518.72;4889799;29;20138;-78
2023/12/04 12:34:35;;;;;;;13.10;7.05;;;;;;;2.16;100.00;100515.94;4873957;29;20028;-76
2023/12/04 12:37:03;;;;;;;12.43;7.40;;;;;;;2.15;100.00;100517.09;4892011;29;20036;-76
2023/12/04 12:39:30;;;;;;;14.05;5.10;;;;;;;2.73;100.00;100511.16;4891636;29;20048;-75
2023/12/04 12:41:55;;;;;;;33.42;8.32;;;;;;;3.10;100.00;100501.16;4876339;29;20040;-78
2023/12/04 12:44:21;;;;;;;24.27;10.30;;;;;;;2.82;100.00;100506.38;4876026;29;20029;-78
2023/12/04 12:46:50;;;;;;;9.75;5.70;;;;;;;2.53;100.00;100493.38;4875464;29;20021;-78
2023/12/04 12:49:20;;;;;;;11.68;6.72;;;;;;;2.38;100.00;100500.28;4872675;29;20490;-77
2023/12/04 12:51:45;;;;;;;8.98;5.63;;;;;;;2.34;100.00;100486.34;4893125;29;20060;-77
2023/12/04 12:54:11;;;;;;;19.38;7.50;;;;;;;2.47;100.00;100481.72;4890324;29;20486;-77
2023/12/04 12:56:36;;;;;;;14.15;6.20;;;;;;;2.50;100.00;100485.75;4872627;29;20071;-77
2023/12/04 12:59:02;;;;;;;13.00;6.95;;;;;;;2.41;100.00;100474.75;4875304;29;20084;-77
2023/12/04 13:01:31;;;;;;;9.85;5.85;;;;;;;2.42;100.00;100484.66;4892879;29;20024;-77
2023/12/04 13:03:57;;;;;;;10.00;5.80;;;;;;;2.52;100.00;100481.53;4890609;29;20064;-77
2023/12/04 13:06:22;;;;;;;9.95;6.03;;;;;;;2.50;100.00;100478.28;4889205;29;20076;-77
2023/12/04 13:08:47;;;;;;;9.02;4.82;;;;;;;2.45;100.00;100472.97;4890688;29;20127;-77
2023/12/04 13:11:13;;;;;;;13.15;6.75;;;;;;;2.54;100.00;100464.63;4890318;29;20425;-77
2023/12/04 13:13:38;;;;;;;10.43;5.63;;;;;;;2.42;100.00;100455.09;4876675;29;20115;-77
2023/12/04 13:16:06;;;;;;;12.65;7.18;;;;;;;2.46;100.00;100457.97;4885289;29;20067;-77
2023/12/04 13:18:34;;;;;;;8.20;5.45;;;;;;;2.49;100.00;100460.09;4886641;29;20032;-77
2023/12/04 13:21:00;;;;;;;10.73;5.80;;;;;;;2.42;100.00;100454.25;4886537;29;20032;-76
2023/12/04 13:23:25;;;;;;;9.60;6.05;;;;;;;2.46;100.00;100460.75;4874960;29;20032;-76
2023/12/04 13:25:50;;;;;;;9.05;6.20;;;;;;;2.51;100.00;100446.75;4889083;29;20079;-78
2023/12/04 13:28:16;;;;;;;13.68;6.47;;;;;;;2.48;100.00;100443.84;4890257;29;20046;-77
2023/12/04 13:30:42;;;;;;;7.15;5.78;;;;;;;2.38;100.00;100447.78;4874689;29;20449;-76
2023/12/04 13:33:08;;;;;;;12.98;5.72;;;;;;;2.43;100.00;100444.84;4889886;29;20096;-75
2023/12/04 13:35:33;;;;;;;8.93;5.55;;;;;;;2.36;100.00;100437.09;4889726;29;20044;-76
2023/12/04 13:37:59;;;;;;;10.18;5.80;;;;;;;2.38;100.00;100429.28;4891903;29;20068;-76
2023/12/04 13:40:28;;;;;;;10.95;6.00;;;;;;;2.38;100.00;100425.69;4889071;29;20040;-76
2023/12/04 13:45:38;;;;;;;11.15;6.13;;;;;;;2.29;100.00;100422.19;4893543;29;20415;-76
2023/12/04 13:48:03;;;;;;;10.68;6.72;;;;;;;2.42;100.00;100418.34;4889298;29;20033;-76
2023/12/04 13:50:29;;;;;;;12.10;6.07;;;;;;;2.36;100.00;100416.94;4890518;29;20033;-76
2023/12/04 13:52:57;;;;;;;11.50;5.57;;;;;;;2.43;100.00;100403.41;4890693;29;20032;-78
2023/12/04 13:58:37;;;;;;;10.25;6.68;;;;;;;2.43;100.00;100408.94;4878570;29;20051;-77
2023/12/04 14:00:59;;;;;;;8.60;5.30;;;;;;;2.41;100.00;100397.41;4888917;29;20210;-77
2023/12/04 14:03:24;;;;;;;10.70;5.60;;;;;;;2.60;100.00;100395.00;4889018;29;20055;-77
2023/12/04 14:05:50;;;;;;;7.97;5.82;;;;;;;2.53;100.00;100391.97;4891359;29;20211;-77
2023/12/04 14:08:15;;;;;;;11.95;6.45;;;;;;;2.51;100.00;100385.16;4887623;29;20439;-77
2023/12/04 14:10:41;;;;;;;7.57;5.85;;;;;;;3.49;100.00;100374.53;4889070;29;20508;-77
2023/12/04 14:13:06;;;;;;;8.32;5.78;;;;;;;3.00;100.00;100369.66;4889603;29;20061;-77
2023/12/04 14:15:31;;;;;;;9.18;4.95;;;;;;;2.79;100.00;100366.09;4886350;29;20071;-77
2023/12/04 14:17:57;;;;;;;13.68;6.68;;;;;;;2.71;100.00;100367.78;4889757;29;20111;-76
2023/12/04 14:20:22;;;;;;;9.32;5.63;;;;;;;2.72;100.00;100363.88;4888426;29;20401;-77
2023/12/04 14:22:47;;;;;;;15.77;7.20;;;;;;;2.67;100.00;100358.53;4889821;29;20523;-76
2023/12/04 14:25:13;;;;;;;10.90;6.03;;;;;;;2.69;100.00;100360.97;4874230;29;20040;-76
2023/12/04 14:27:40;;;;;;;7.88;5.43;;;;;;;2.67;100.00;100352.22;4884130;29;20025;-76
2023/12/04 14:30:09;;;;;;;8.30;5.63;;;;;;;2.68;100.00;100357.41;4891585;29;20466;-77
2023/12/04 14:32:35;;;;;;;10.23;6.38;;;;;;;2.53;100.00;100350.53;4885914;29;20569;-77
2023/12/04 14:35:01;;;;;;;11.45;6.38;;;;;;;2.65;100.00;100352.53;4887210;29;20025;-77
2023/12/04 14:37:26;;;;;;;8.63;5.13;;;;;;;2.55;100.00;100350.19;4889476;29;20055;-77
2023/12/04 14:39:52;;;;;;;8.35;5.05;;;;;;;2.54;100.00;100345.81;4889649;29;20088;-77
2023/12/04 14:42:17;;;;;;;10.43;5.53;;;;;;;2.56;100.00;100360.09;4869225;29;20089;-74
2023/12/04 14:44:42;;;;;;;11.77;5.88;;;;;;;2.52;100.00;100351.66;4872994;29;20052;-73
2023/12/04 14:47:08;;;;;;;7.88;5.47;;;;;;;2.37;100.00;100346.75;4885057;29;20040;-75
2023/12/04 14:49:34;;;;;;;10.73;5.97;;;;;;;2.39;100.00;100342.50;4890470;29;20420;-73
2023/12/04 14:52:00;;;;;;;12.70;5.30;;;;;;;2.46;100.00;100350.25;4873523;29;20024;-73
2023/12/04 14:55:44;;;;;;;9.60;5.80;;;;;;;2.50;100.00;100351.19;4890950;29;20581;-73
2023/12/04 15:05:44;;;;;;;8.00;5.43;;;;;;;2.52;100.00;100332.31;4888540;29;20612;-72
2023/12/04 15:16:25;;;;;;;15.73;5.47;;;;;;;2.44;100.00;100319.38;4890363;29;20029;-73
2023/12/04 15:21:16;;;;;;;9.35;5.55;;;;;;;2.37;100.00;100313.59;4889780;29;20033;-73
2023/12/04 15:23:42;;;;;;;11.73;6.63;;;;;;;2.38;100.00;100309.69;4889932;29;20044;-74
2023/12/04 15:26:07;;;;;;;9.13;5.20;;;;;;;2.35;100.00;100305.66;4889156;29;20033;-74
2023/12/04 15:28:33;;;;;;;10.75;6.10;;;;;;;2.16;100.00;100297.03;4873316;29;20028;-72
2023/12/04 15:31:00;;;;;;;10.40;5.72;;;;;;;2.17;100.00;100295.88;4889768;29;20040;-74
2023/12/04 15:33:27;;;;;;;11.95;5.90;;;;;;;2.28;100.00;100293.50;4886964;29;20041;-74
2023/12/04 15:35:53;;;;;;;9.05;6.05;;;;;;;2.16;100.00;100297.81;4888059;29;20040;-75
2023/12/04 15:38:19;;;;;;;12.55;6.00;;;;;;;2.09;100.00;100286.50;4873334;29;20032;-75
2023/12/04 15:40:45;;;;;;;8.70;5.00;;;;;;;2.16;100.00;100280.44;4891318;29;20028;-72
2023/12/04 15:43:10;;;;;;;11.00;5.45;;;;;;;2.06;100.00;100281.66;4886274;29;20039;-74
2023/12/04 15:45:36;;;;;;;10.90;5.55;;;;;;;1.99;100.00;100284.13;4889110;29;20517;-72
2023/12/04 15:48:01;;;;;;;12.02;6.78;;;;;;;1.99;100.00;100287.69;4890829;29;20029;-72
2023/12/04 15:50:27;;;;;;;11.23;6.45;;;;;;;2.19;100.00;100291.66;4890929;29;20410;-73
2023/12/04 15:52:52;;;;;;;10.50;6.68;;;;;;;2.83;100.00;100292.41;4887710;29;20533;-75
2023/12/04 15:55:17;;;;;;;20.38;6.20;;;;;;;2.47;100.00;100288.34;4872739;29;20040;-77
2023/12/04 15:57:43;;;;;;;14.70;6.35;;;;;;;2.46;100.00;100289.47;4889983;29;20635;-77
2023/12/04 16:00:15;;;;;;;9.68;6.05;;;;;;;2.41;100.00;100287.72;4887896;29;20508;-77
2023/12/04 16:02:43;;;;;;;10.43;6.25;;;;;;;2.27;100.00;100286.38;4871941;29;20418;-76
2023/12/04 16:05:11;;;;;;;13.30;6.97;;;;;;;2.18;100.00;100290.00;4885290;29;20365;-77
2023/12/04 16:07:37;;;;;;;10.32;5.70;;;;;;;2.32;100.00;100291.69;4876118;29;20051;-77
2023/12/04 16:10:03;;;;;;;10.90;6.40;;;;;;;2.32;100.00;100294.47;4892279;29;20055;-76
2023/12/04 16:12:29;;;;;;;13.18;6.05;;;;;;;2.18;100.00;100283.69;4892499;29;20091;-78
2023/12/04 16:14:54;;;;;;;12.05;6.75;;;;;;;2.20;100.00;100275.88;4886500;29;20768;-78
2023/12/04 16:17:19;;;;;;;13.18;6.55;;;;;;;2.29;100.00;100273.03;4892133;29;20538;-77
2023/12/04 16:19:45;;;;;;;10.82;6.35;;;;;;;2.15;100.00;100274.13;4888936;29;20486;-77
2023/12/04 16:22:10;;;;;;;10.02;5.85;;;;;;;2.19;100.00;100275.06;4890543;29;20037;-77
2023/12/04 16:24:35;;;;;;;9.98;6.25;;;;;;;2.18;100.00;100270.69;4888682;29;20045;-76
2023/12/04 16:27:00;;;;;;;14.25;6.97;;;;;;;2.06;100.00;100281.66;4889824;29;20028;-77
2023/12/04 16:29:30;;;;;;;13.27;7.18;;;;;;;2.11;100.00;100281.47;4891434;29;20074;-77
2023/12/04 16:31:55;;;;;;;10.25;6.55;;;;;;;2.20;100.00;100281.41;4890029;29;20084;-77
2023/12/04 16:34:21;;;;;;;9.57;6.22;;;;;;;2.20;100.00;100271.16;4891447;29;20044;-76
2023/12/04 16:36:46;;;;;;;9.40;7.05;;;;;;;2.22;100.00;100281.88;4894011;29;20031;-77
2023/12/04 16:39:11;;;;;;;11.57;6.30;;;;;;;2.12;100.00;100260.97;4875388;29;20087;-76
2023/12/04 16:41:37;;;;;;;11.10;7.10;;;;;;;2.05;100.00;100263.47;4890637;29;20064;-76
2023/12/04 16:44:02;;;;;;;14.00;6.55;;;;;;;2.00;100.00;100256.22;4890906;29;20123;-77
2023/12/04 16:46:55;;;;;;;12.02;7.15;;;;;;;1.97;100.00;100250.53;4877244;29;20112;-76
2023/12/04 16:49:24;;;;;;;13.32;6.50;;;;;;;2.05;100.00;100240.59;4875877;29;20401;-76
2023/12/04 16:51:51;;;;;;;11.35;7.20;;;;;;;2.16;100.00;100244.56;4875666;29;20032;-76
2023/12/04 16:54:16;;;;;;;8.65;6.07;;;;;;;2.01;100.00;100251.50;4892476;29;20042;-77
2023/12/04 16:56:42;;;;;;;12.80;7.50;;;;;;;2.03;100.00;100251.97;4892229;29;20036;-79
2023/12/04 16:59:07;;;;;;;9.18;7.35;;;;;;;2.15;100.00;100246.53;4891823;29;20051;-76
2023/12/04 17:01:32;;;;;;;12.50;7.93;;;;;;;1.96;100.00;100237.88;4889707;29;20044;-77
2023/12/04 17:03:58;;;;;;;9.25;6.60;;;;;;;1.98;100.00;100241.94;4873526;29;20211;-78
2023/12/04 17:06:25;;;;;;;13.45;7.68;;;;;;;1.93;100.00;100246.84;4876221;29;20375;-78
2023/12/04 17:08:51;;;;;;;15.38;7.07;;;;;;;1.91;100.00;100238.09;4891697;29;20163;-78
2023/12/04 17:11:16;;;;;;;9.32;6.32;;;;;;;1.95;100.00;100252.81;4891989;29;20153;-78
2023/12/04 17:13:41;;;;;;;11.85;6.55;;;;;;;1.91;100.00;100236.13;4891855;29;20115;-78
2023/12/04 17:16:08;;;;;;;17.23;7.40;;;;;;;1.99;100.00;100237.22;4872348;29;20041;-77
2023/12/04 17:18:36;;;;;;;15.38;7.60;;;;;;;2.00;100.00;100238.81;4874015;29;20032;-77
2023/12/04 17:21:01;;;;;;;14.98;8.18;;;;;;;1.98;100.00;100235.59;4875603;29;20032;-77
2023/12/04 17:23:27;;;;;;;14.23;7.55;;;;;;;1.99;100.00;100242.72;4892718;29;20047;-77
2023/12/04 17:25:54;;;;;;;15.45;7.45;;;;;;;2.00;100.00;100239.66;4891117;29;20037;-76
2023/12/04 17:28:19;;;;;;;9.98;6.72;;;;;;;1.92;100.00;100237.75;4889920;29;20029;-76
2023/12/04 17:30:45;;;;;;;11.45;6.13;;;;;;;1.87;100.00;100240.69;4891265;29;20586;-76
2023/12/04 17:33:11;;;;;;;13.45;7.15;;;;;;;1.94;100.00;100242.91;4889958;29;20419;-76
2023/12/04 17:35:36;;;;;;;13.40;7.97;;;;;;;1.77;100.00;100239.16;4885780;29;20033;-77
2023/12/04 17:38:02;;;;;;;10.80;7.07;;;;;;;1.88;100.00;100247.00;4871137;29;20814;-76
2023/12/04 17:40:28;;;;;;;12.35;7.07;;;;;;;1.97;100.00;100239.50;4887672;29;20028;-77
2023/12/04 17:42:53;;;;;;;10.43;7.35;;;;;;;1.94;100.00;100242.91;4872977;29;20559;-77
2023/12/04 17:45:18;;;;;;;14.85;8.00;;;;;;;1.91;100.00;100230.59;4870477;29;20033;-77
2023/12/04 17:47:44;;;;;;;9.95;6.97;;;;;;;1.89;100.00;100229.31;4890476;29;20818;-76
2023/12/04 17:50:09;;;;;;;13.40;7.28;;;;;;;1.85;100.00;100233.91;4890316;29;20402;-77
2023/12/04 17:52:35;;;;;;;14.32;6.90;;;;;;;1.91;100.00;100229.81;4872768;29;20036;-77
2023/12/04 17:55:01;;;;;;;13.40;7.78;;;;;;;1.97;100.00;100232.03;4873117;29;20064;-77
2023/12/04 17:57:26;;;;;;;13.52;6.72;;;;;;;1.85;100.00;100236.66;4890201;29;20419;-76
2023/12/04 17:59:54;;;;;;;12.73;6.88;;;;;;;2.01;100.00;100234.94;4891325;29;20067;-77
2023/12/04 18:02:19;;;;;;;12.65;7.40;;;;;;;1.97;100.00;100233.97;4884898;29;20538;-77
2023/12/04 18:04:45;;;;;;;15.65;7.45;;;;;;;1.91;100.00;100235.31;4870214;29;20034;-77
2023/12/04 18:07:11;;;;;;;12.70;7.03;;;;;;;2.04;100.00;100231.47;4887610;29;20127;-77
2023/12/04 18:09:38;;;;;;;13.20;8.35;;;;;;;1.97;100.00;100223.75;4872318;29;20040;-77
2023/12/04 18:12:04;;;;;;;13.32;8.50;;;;;;;1.79;100.00;100223.06;4888530;29;20517;-76
2023/12/04 18:14:30;;;;;;;12.27;7.90;;;;;;;1.81;100.00;100223.53;4888488;29;21987;-78
2023/12/04 18:16:55;;;;;;;11.85;6.50;;;;;;;1.87;100.00;100218.63;4868881;29;20398;-76
2023/12/04 18:19:20;;;;;;;13.35;7.55;;;;;;;1.85;100.00;100220.09;4890454;29;20042;-76
2023/12/04 18:21:46;;;;;;;11.35;8.38;;;;;;;1.69;100.00;100217.13;4888304;29;20036;-75
2023/12/04 18:24:14;;;;;;;11.98;8.13;;;;;;;1.69;100.00;100206.09;4885516;29;20092;-76
2023/12/04 18:26:42;;;;;;;17.00;7.97;;;;;;;1.86;100.00;100216.22;4889603;29;20067;-78
2023/12/04 18:29:11;;;;;;;13.25;7.28;;;;;;;1.81;100.00;100217.19;4872571;29;20525;-77
2023/12/04 18:31:36;;;;;;;14.52;9.23;;;;;;;1.79;100.00;100213.97;4871223;29;20037;-77
2023/12/04 18:34:02;;;;;;;12.80;7.55;;;;;;;1.69;100.00;100212.41;4845196;29;1088854;-77
2023/12/04 18:36:37;;;;;;;17.38;8.15;;;;;;;1.66;100.00;100207.56;4887608;29;20036;-77
2023/12/04 18:39:03;;;;;;;12.27;7.75;;;;;;;1.64;100.00;100204.31;4885978;29;20104;-77
2023/12/04 18:41:29;;;;;;;14.40;8.05;;;;;;;1.79;100.00;100195.47;4886456;29;20131;-77
2023/12/04 18:43:55;;;;;;;12.30;8.25;;;;;;;1.81;100.00;100181.31;4870329;29;20047;-76
2023/12/04 18:46:23;;;;;;;14.90;8.82;;;;;;;1.68;100.00;100183.19;4889293;29;20031;-77
2023/12/04 18:48:48;;;;;;;13.52;8.95;;;;;;;1.75;100.00;100180.72;4885707;29;20035;-77
2023/12/04 18:51:17;;;;;;;16.83;8.38;;;;;;;1.50;100.00;100176.19;4892310;29;20044;-77
2023/12/04 18:53:43;;;;;;;13.10;8.43;;;;;;;1.50;100.00;100181.72;4889950;29;20395;-77
2023/12/04 18:56:09;;;;;;;17.30;9.45;;;;;;;1.58;100.00;100186.34;4870649;29;20032;-76
2023/12/04 18:58:35;;;;;;;15.23;7.93;;;;;;;1.78;100.00;100188.31;4870168;29;20130;-77
2023/12/04 19:01:00;;;;;;;15.07;8.77;;;;;;;1.74;100.00;100187.38;4890358;29;20768;-76
2023/12/04 19:03:25;;;;;;;17.67;8.57;;;;;;;1.79;100.00;100189.97;4870872;29;20040;-76
2023/12/04 19:05:51;;;;;;;17.27;9.32;;;;;;;1.72;100.00;100186.91;4889528;29;20036;-76
2023/12/04 19:08:16;;;;;;;16.55;9.75;;;;;;;1.68;100.00;100179.63;4888206;29;20494;-76
2023/12/04 19:10:42;;;;;;;12.75;8.80;;;;;;;1.55;100.00;100170.47;4889051;29;20079;-76
2023/12/04 19:13:08;;;;;;;16.67;9.23;;;;;;;1.54;100.00;100177.13;4887851;29;20047;-76
2023/12/04 19:15:34;;;;;;;17.38;9.27;;;;;;;1.73;100.00;100162.88;4871922;29;20033;-76
2023/12/04 19:17:59;;;;;;;17.60;9.00;;;;;;;1.49;100.00;100164.34;4883762;29;21337;-76
2023/12/04 19:20:25;;;;;;;20.80;11.85;;;;;;;1.68;100.00;100169.41;4891178;29;20443;-76
2023/12/04 19:22:50;;;;;;;21.17;11.20;;;;;;;1.47;100.00;100168.56;4890365;29;20473;-73
2023/12/04 19:25:15;;;;;;;18.88;11.75;;;;;;;1.60;100.00;100159.22;4890082;29;20055;-73
2023/12/04 19:27:41;;;;;;;35.47;21.77;;;;;;;4.13;100.00;100159.81;4888516;29;20075;-75
2023/12/04 19:30:07;;;;;;;19.85;12.40;;;;;;;2.85;100.00;100160.22;4886491;29;20060;-75
2023/12/04 19:32:33;;;;;;;21.23;11.73;;;;;;;2.51;100.00;100153.09;4888481;29;20084;-74
2023/12/04 19:34:59;;;;;;;24.02;13.98;;;;;;;2.38;100.00;100157.78;4890619;29;20572;-73
2023/12/04 19:37:24;;;;;;;23.10;12.75;;;;;;;2.17;100.00;100158.63;4868684;29;20075;-73
2023/12/04 19:39:49;;;;;;;30.70;16.88;;;;;;;2.03;100.00;100155.34;4886064;29;20032;-76
2023/12/04 19:42:15;;;;;;;22.10;12.32;;;;;;;1.65;100.00;100144.47;4869622;29;20137;-75
2023/12/04 19:44:44;;;;;;;19.02;11.43;;;;;;;1.47;100.00;100144.56;4870764;29;20418;-74
2023/12/04 19:47:10;;;;;;;18.20;11.10;;;;;;;1.16;100.00;100140.22;4870608;29;20174;-75
2023/12/04 19:49:35;;;;;;;17.95;10.85;;;;;;;1.30;100.00;100137.19;4866126;29;20036;-79
2023/12/04 19:52:01;;;;;;;18.98;12.82;;;;;;;1.42;100.00;100140.03;4883725;29;20060;-74
2023/12/04 19:54:26;;;;;;;20.88;12.82;;;;;;;1.43;100.00;100132.56;4884733;29;20550;-77
2023/12/04 19:56:51;;;;;;;19.55;10.65;;;;;;;1.25;100.00;100126.38;4869837;29;20036;-76
2023/12/04 19:59:17;;;;;;;19.15;11.90;;;;;;;1.33;100.00;100128.28;4886468;29;20487;-77
2023/12/04 20:01:42;;;;;;;18.52;12.13;;;;;;;1.25;100.00;100122.81;4886960;29;20384;-74
2023/12/04 20:04:08;;;;;;;17.38;10.90;;;;;;;1.19;100.00;100119.44;4883573;29;20035;-73
2023/12/04 20:06:34;;;;;;;20.60;12.63;;;;;;;1.37;100.00;100122.88;4872137;29;20040;-74
2023/12/04 20:08:59;;;;;;;19.58;10.95;;;;;;;1.48;100.00;100115.03;4887571;29;20131;-73
2023/12/04 20:11:24;;;;;;;20.95;11.13;;;;;;;1.41;100.00;100113.63;4870392;29;20434;-73
2023/12/04 20:13:49;;;;;;;17.98;9.63;;;;;;;1.29;100.00;100119.06;4884727;29;20032;-76